sensor_id;sensor_type;location;lat;lon;timestamp;P1;durP1;ratioP1;P2;durP2;ratioP2
11731;SDS011;5922;53.734;10.258;2022-09-09T00:00:40;28.57;;;19.97;;
11731;SDS011;5922;53.734;10.258;2022-09-09T00:03:11;27.03;;;20.47;;
11731;SDS011;5922;53.734;10.258;2022-09-09T00:05:41;26.83;;;19.90;;
11731;SDS011;5922;53.734;10.258;2022-09-09T00:08:12;25.17;;;20.37;;
11731;SDS011;5922;53.734;10.258;2022-09-09T00:10:44;24.67;;;20.83;;
11731;SDS011;5922;53.734;10.258;2022-09-09T00:13:14;22.97;;;20.20;;
11731;SDS011;5922;53.734;10.258;2022-09-09T00:15:45;22.37;;;19.90;;
11731;SDS011;5922;53.734;10.258;2022-09-09T00:18:17;25.33;;;21.13;;
11731;SDS011;5922;53.734;10.258;2022-09-09T00:20:49;31.37;;;20.60;;
11731;SDS011;5922;53.734;10.258;2022-09-09T00:23:21;28.80;;;20.37;;
11731;SDS011;5922;53.734;10.258;2022-09-09T00:25:50;32.60;;;21.33;;
11731;SDS011;5922;53.734;10.258;2022-09-09T00:28:22;36.83;;;21.60;;
11731;SDS011;5922;53.734;10.258;2022-09-09T00:30:49;33.70;;;21.30;;
11731;SDS011;5922;53.734;10.258;2022-09-09T00:33:17;31.97;;;20.43;;
11731;SDS011;5922;53.734;10.258;2022-09-09T00:35:49;38.30;;;21.37;;
11731;SDS011;5922;53.734;10.258;2022-09-09T00:38:18;33.97;;;20.67;;
11731;SDS011;5922;53.734;10.258;2022-09-09T00:40:48;36.93;;;20.00;;
11731;SDS011;5922;53.734;10.258;2022-09-09T00:43:22;25.17;;;21.23;;
11731;SDS011;5922;53.734;10.258;2022-09-09T00:46:12;26.20;;;20.03;;
11731;SDS011;5922;53.734;10.258;2022-09-09T00:48:45;30.00;;;20.60;;
11731;SDS011;5922;53.734;10.258;2022-09-09T00:51:17;27.70;;;20.00;;
11731;SDS011;5922;53.734;10.258;2022-09-09T00:53:58;40.00;;;20.47;;
11731;SDS011;5922;53.734;10.258;2022-09-09T00:56:30;32.00;;;20.77;;
11731;SDS011;5922;53.734;10.258;2022-09-09T00:59:05;51.20;;;20.80;;
11731;SDS011;5922;53.734;10.258;2022-09-09T01:01:34;29.50;;;21.23;;
11731;SDS011;5922;53.734;10.258;2022-09-09T01:04:03;30.20;;;20.87;;
11731;SDS011;5922;53.734;10.258;2022-09-09T01:06:34;31.80;;;22.20;;
11731;SDS011;5922;53.734;10.258;2022-09-09T01:09:07;36.07;;;22.40;;
11731;SDS011;5922;53.734;10.258;2022-09-09T01:11:41;33.20;;;21.43;;
11731;SDS011;5922;53.734;10.258;2022-09-09T01:14:13;40.17;;;22.40;;
11731;SDS011;5922;53.734;10.258;2022-09-09T01:16:44;37.07;;;21.83;;
11731;SDS011;5922;53.734;10.258;2022-09-09T01:19:15;34.47;;;21.87;;
11731;SDS011;5922;53.734;10.258;2022-09-09T01:21:48;28.50;;;21.50;;
11731;SDS011;5922;53.734;10.258;2022-09-09T01:24:19;29.33;;;21.70;;
11731;SDS011;5922;53.734;10.258;2022-09-09T01:26:50;31.63;;;22.43;;
11731;SDS011;5922;53.734;10.258;2022-09-09T01:29:19;27.30;;;21.37;;
11731;SDS011;5922;53.734;10.258;2022-09-09T01:31:54;23.50;;;19.93;;
11731;SDS011;5922;53.734;10.258;2022-09-09T01:34:23;30.57;;;21.63;;
11731;SDS011;5922;53.734;10.258;2022-09-09T01:36:53;23.97;;;19.50;;
11731;SDS011;5922;53.734;10.258;2022-09-09T01:39:21;26.83;;;18.50;;
11731;SDS011;5922;53.734;10.258;2022-09-09T01:41:48;20.83;;;17.20;;
11731;SDS011;5922;53.734;10.258;2022-09-09T01:44:17;25.57;;;18.93;;
11731;SDS011;5922;53.734;10.258;2022-09-09T01:46:46;20.47;;;17.80;;
11731;SDS011;5922;53.734;10.258;2022-09-09T01:49:13;20.43;;;17.33;;
11731;SDS011;5922;53.734;10.258;2022-09-09T01:51:40;19.17;;;17.17;;
11731;SDS011;5922;53.734;10.258;2022-09-09T01:54:10;20.30;;;17.60;;
11731;SDS011;5922;53.734;10.258;2022-09-09T01:56:40;19.43;;;17.30;;
11731;SDS011;5922;53.734;10.258;2022-09-09T01:59:14;20.60;;;16.77;;
11731;SDS011;5922;53.734;10.258;2022-09-09T02:01:52;19.67;;;17.23;;
11731;SDS011;5922;53.734;10.258;2022-09-09T02:04:31;18.77;;;16.80;;
11731;SDS011;5922;53.734;10.258;2022-09-09T02:07:02;18.37;;;16.40;;
11731;SDS011;5922;53.734;10.258;2022-09-09T02:09:32;19.70;;;17.60;;
11731;SDS011;5922;53.734;10.258;2022-09-09T02:12:03;17.93;;;16.10;;
11731;SDS011;5922;53.734;10.258;2022-09-09T02:14:34;17.83;;;16.03;;
11731;SDS011;5922;53.734;10.258;2022-09-09T02:17:06;18.43;;;16.53;;
11731;SDS011;5922;53.734;10.258;2022-09-09T02:19:35;17.50;;;15.70;;
11731;SDS011;5922;53.734;10.258;2022-09-09T02:22:04;17.50;;;15.70;;
11731;SDS011;5922;53.734;10.258;2022-09-09T02:24:33;18.83;;;16.93;;
11731;SDS011;5922;53.734;10.258;2022-09-09T02:27:01;18.90;;;16.90;;
11731;SDS011;5922;53.734;10.258;2022-09-09T02:32:40;18.37;;;16.33;;
11731;SDS011;5922;53.734;10.258;2022-09-09T02:35:25;18.37;;;16.40;;
11731;SDS011;5922;53.734;10.258;2022-09-09T02:37:55;19.87;;;17.77;;
11731;SDS011;5922;53.734;10.258;2022-09-09T02:40:24;19.77;;;16.67;;
11731;SDS011;5922;53.734;10.258;2022-09-09T02:42:51;18.93;;;16.93;;
11731;SDS011;5922;53.734;10.258;2022-09-09T02:45:22;19.53;;;17.50;;
11731;SDS011;5922;53.734;10.258;2022-09-09T02:47:54;21.20;;;17.90;;
11731;SDS011;5922;53.734;10.258;2022-09-09T02:50:25;19.33;;;17.27;;
11731;SDS011;5922;53.734;10.258;2022-09-09T02:52:57;19.83;;;17.83;;
11731;SDS011;5922;53.734;10.258;2022-09-09T02:55:29;21.57;;;18.13;;
11731;SDS011;5922;53.734;10.258;2022-09-09T02:58:00;19.60;;;16.00;;
11731;SDS011;5922;53.734;10.258;2022-09-09T03:00:29;17.73;;;15.93;;
11731;SDS011;5922;53.734;10.258;2022-09-09T03:02:58;18.83;;;16.40;;
11731;SDS011;5922;53.734;10.258;2022-09-09T03:05:26;20.37;;;16.40;;
11731;SDS011;5922;53.734;10.258;2022-09-09T03:07:53;17.07;;;15.33;;
11731;SDS011;5922;53.734;10.258;2022-09-09T03:10:20;18.17;;;15.30;;
11731;SDS011;5922;53.734;10.258;2022-09-09T03:12:48;17.23;;;15.43;;
11731;SDS011;5922;53.734;10.258;2022-09-09T03:15:15;19.00;;;16.27;;
11731;SDS011;5922;53.734;10.258;2022-09-09T03:17:43;17.33;;;15.53;;
11731;SDS011;5922;53.734;10.258;2022-09-09T03:20:11;18.27;;;15.20;;
11731;SDS011;5922;53.734;10.258;2022-09-09T03:22:39;17.47;;;15.67;;
11731;SDS011;5922;53.734;10.258;2022-09-09T03:25:06;16.87;;;15.17;;
11731;SDS011;5922;53.734;10.258;2022-09-09T03:27:33;19.13;;;16.40;;
11731;SDS011;5922;53.734;10.258;2022-09-09T03:30:01;20.90;;;17.23;;
11731;SDS011;5922;53.734;10.258;2022-09-09T03:32:28;20.63;;;16.93;;
11731;SDS011;5922;53.734;10.258;2022-09-09T03:34:56;17.97;;;16.07;;
11731;SDS011;5922;53.734;10.258;2022-09-09T03:37:25;18.37;;;16.27;;
11731;SDS011;5922;53.734;10.258;2022-09-09T03:39:52;20.53;;;16.77;;
11731;SDS011;5922;53.734;10.258;2022-09-09T03:42:20;18.67;;;16.77;;
11731;SDS011;5922;53.734;10.258;2022-09-09T03:44:47;18.87;;;16.17;;
11731;SDS011;5922;53.734;10.258;2022-09-09T03:47:16;19.23;;;17.17;;
11731;SDS011;5922;53.734;10.258;2022-09-09T03:49:44;19.73;;;17.63;;
11731;SDS011;5922;53.734;10.258;2022-09-09T03:52:11;22.43;;;17.50;;
11731;SDS011;5922;53.734;10.258;2022-09-09T03:54:40;19.20;;;17.20;;
11731;SDS011;5922;53.734;10.258;2022-09-09T03:57:08;23.00;;;17.40;;
11731;SDS011;5922;53.734;10.258;2022-09-09T03:59:36;19.90;;;17.80;;
11731;SDS011;5922;53.734;10.258;2022-09-09T04:02:03;20.00;;;17.80;;
11731;SDS011;5922;53.734;10.258;2022-09-09T04:04:30;20.30;;;18.00;;
11731;SDS011;5922;53.734;10.258;2022-09-09T04:06:57;22.50;;;16.63;;
11731;SDS011;5922;53.734;10.258;2022-09-09T04:09:25;19.10;;;17.10;;
11731;SDS011;5922;53.734;10.258;2022-09-09T04:11:53;19.87;;;16.77;;
11731;SDS011;5922;53.734;10.258;2022-09-09T04:14:20;19.10;;;17.07;;
11731;SDS011;5922;53.734;10.258;2022-09-09T04:16:48;18.80;;;16.53;;
11731;SDS011;5922;53.734;10.258;2022-09-09T04:19:15;18.13;;;16.23;;
11731;SDS011;5922;53.734;10.258;2022-09-09T04:21:42;20.27;;;16.03;;
11731;SDS011;5922;53.734;10.258;2022-09-09T04:24:09;17.37;;;15.57;;
11731;SDS011;5922;53.734;10.258;2022-09-09T04:26:37;18.20;;;16.30;;
11731;SDS011;5922;53.734;10.258;2022-09-09T04:29:05;21.43;;;15.03;;
11731;SDS011;5922;53.734;10.258;2022-09-09T04:31:32;17.50;;;15.70;;
11731;SDS011;5922;53.734;10.258;2022-09-09T04:34:00;16.67;;;14.97;;
11731;SDS011;5922;53.734;10.258;2022-09-09T04:36:30;19.00;;;15.63;;
11731;SDS011;5922;53.734;10.258;2022-09-09T04:38:58;19.03;;;15.73;;
11731;SDS011;5922;53.734;10.258;2022-09-09T04:41:26;18.07;;;16.20;;
11731;SDS011;5922;53.734;10.258;2022-09-09T04:43:59;17.47;;;15.67;;
11731;SDS011;5922;53.734;10.258;2022-09-09T04:46:29;18.53;;;16.30;;
11731;SDS011;5922;53.734;10.258;2022-09-09T04:48:56;16.77;;;15.07;;
11731;SDS011;5922;53.734;10.258;2022-09-09T04:51:23;17.93;;;14.67;;
11731;SDS011;5922;53.734;10.258;2022-09-09T04:53:50;16.67;;;14.97;;
11731;SDS011;5922;53.734;10.258;2022-09-09T04:56:19;17.23;;;15.33;;
11731;SDS011;5922;53.734;10.258;2022-09-09T04:58:46;16.77;;;14.97;;
11731;SDS011;5922;53.734;10.258;2022-09-09T05:01:14;16.17;;;14.53;;
11731;SDS011;5922;53.734;10.258;2022-09-09T05:03:43;17.63;;;15.53;;
11731;SDS011;5922;53.734;10.258;2022-09-09T05:06:12;18.50;;;15.23;;
11731;SDS011;5922;53.734;10.258;2022-09-09T05:08:41;17.07;;;14.77;;
11731;SDS011;5922;53.734;10.258;2022-09-09T05:11:15;17.70;;;15.10;;
11731;SDS011;5922;53.734;10.258;2022-09-09T05:13:43;16.33;;;13.77;;
11731;SDS011;5922;53.734;10.258;2022-09-09T05:16:10;15.77;;;14.17;;
11731;SDS011;5922;53.734;10.258;2022-09-09T05:18:37;16.37;;;14.67;;
11731;SDS011;5922;53.734;10.258;2022-09-09T05:21:06;17.90;;;14.03;;
11731;SDS011;5922;53.734;10.258;2022-09-09T05:23:34;16.23;;;14.17;;
11731;SDS011;5922;53.734;10.258;2022-09-09T05:26:02;15.13;;;13.53;;
11731;SDS011;5922;53.734;10.258;2022-09-09T05:28:29;16.27;;;14.40;;
11731;SDS011;5922;53.734;10.258;2022-09-09T05:30:57;17.60;;;14.50;;
11731;SDS011;5922;53.734;10.258;2022-09-09T05:33:25;17.77;;;13.90;;
11731;SDS011;5922;53.734;10.258;2022-09-09T05:35:56;15.80;;;14.10;;
11731;SDS011;5922;53.734;10.258;2022-09-09T05:38:25;15.67;;;13.27;;
11731;SDS011;5922;53.734;10.258;2022-09-09T05:40:52;15.80;;;13.27;;
11731;SDS011;5922;53.734;10.258;2022-09-09T05:43:20;15.20;;;13.23;;
11731;SDS011;5922;53.734;10.258;2022-09-09T05:45:47;15.10;;;13.50;;
11731;SDS011;5922;53.734;10.258;2022-09-09T05:48:15;14.40;;;12.90;;
11731;SDS011;5922;53.734;10.258;2022-09-09T05:50:42;14.50;;;12.53;;
11731;SDS011;5922;53.734;10.258;2022-09-09T05:53:10;13.77;;;12.37;;
11731;SDS011;5922;53.734;10.258;2022-09-09T05:55:38;13.90;;;12.37;;
11731;SDS011;5922;53.734;10.258;2022-09-09T05:58:06;12.77;;;10.70;;
11731;SDS011;5922;53.734;10.258;2022-09-09T06:00:35;13.93;;;10.73;;
11731;SDS011;5922;53.734;10.258;2022-09-09T06:03:03;11.67;;;10.37;;
11731;SDS011;5922;53.734;10.258;2022-09-09T06:05:30;14.27;;;11.07;;
11731;SDS011;5922;53.734;10.258;2022-09-09T06:07:57;10.30;;;9.30;;
11731;SDS011;5922;53.734;10.258;2022-09-09T06:10:24;10.23;;;9.23;;
11731;SDS011;5922;53.734;10.258;2022-09-09T06:12:53;11.30;;;9.27;;
11731;SDS011;5922;53.734;10.258;2022-09-09T06:15:20;10.07;;;8.47;;
11731;SDS011;5922;53.734;10.258;2022-09-09T06:17:53;10.70;;;8.57;;
11731;SDS011;5922;53.734;10.258;2022-09-09T06:20:21;9.13;;;8.23;;
11731;SDS011;5922;53.734;10.258;2022-09-09T06:22:48;8.67;;;7.70;;
11731;SDS011;5922;53.734;10.258;2022-09-09T06:25:15;9.30;;;7.37;;
11731;SDS011;5922;53.734;10.258;2022-09-09T06:27:43;8.80;;;6.80;;
11731;SDS011;5922;53.734;10.258;2022-09-09T06:30:16;8.37;;;7.20;;
11731;SDS011;5922;53.734;10.258;2022-09-09T06:32:43;9.80;;;7.27;;
11731;SDS011;5922;53.734;10.258;2022-09-09T06:35:10;7.00;;;6.30;;
11731;SDS011;5922;53.734;10.258;2022-09-09T06:37:38;6.93;;;5.90;;
11731;SDS011;5922;53.734;10.258;2022-09-09T06:40:06;7.50;;;6.40;;
11731;SDS011;5922;53.734;10.258;2022-09-09T06:42:33;8.47;;;5.50;;
11731;SDS011;5922;53.734;10.258;2022-09-09T06:45:00;7.00;;;6.30;;
11731;SDS011;5922;53.734;10.258;2022-09-09T06:47:29;8.10;;;5.77;;
11731;SDS011;5922;53.734;10.258;2022-09-09T06:49:56;7.33;;;5.83;;
11731;SDS011;5922;53.734;10.258;2022-09-09T06:52:23;7.00;;;5.60;;
11731;SDS011;5922;53.734;10.258;2022-09-09T06:54:50;6.73;;;5.23;;
11731;SDS011;5922;53.734;10.258;2022-09-09T06:57:18;6.50;;;4.97;;
11731;SDS011;5922;53.734;10.258;2022-09-09T06:59:45;5.73;;;5.13;;
11731;SDS011;5922;53.734;10.258;2022-09-09T07:02:12;5.83;;;4.80;;
11731;SDS011;5922;53.734;10.258;2022-09-09T07:04:41;7.50;;;5.00;;
11731;SDS011;5922;53.734;10.258;2022-09-09T07:07:09;7.03;;;5.00;;
11731;SDS011;5922;53.734;10.258;2022-09-09T07:09:38;7.70;;;4.97;;
11731;SDS011;5922;53.734;10.258;2022-09-09T07:12:06;5.17;;;4.37;;
11731;SDS011;5922;53.734;10.258;2022-09-09T07:14:33;7.87;;;5.30;;
11731;SDS011;5922;53.734;10.258;2022-09-09T07:17:02;5.93;;;4.93;;
11731;SDS011;5922;53.734;10.258;2022-09-09T07:19:29;6.93;;;4.77;;
11731;SDS011;5922;53.734;10.258;2022-09-09T07:21:58;5.67;;;4.70;;
11731;SDS011;5922;53.734;10.258;2022-09-09T07:24:26;7.37;;;4.80;;
11731;SDS011;5922;53.734;10.258;2022-09-09T07:26:55;5.83;;;4.60;;
11731;SDS011;5922;53.734;10.258;2022-09-09T07:29:22;6.50;;;4.87;;
11731;SDS011;5922;53.734;10.258;2022-09-09T07:31:49;7.23;;;5.23;;
11731;SDS011;5922;53.734;10.258;2022-09-09T07:34:16;6.60;;;5.20;;
11731;SDS011;5922;53.734;10.258;2022-09-09T07:36:45;5.77;;;5.00;;
11731;SDS011;5922;53.734;10.258;2022-09-09T07:39:16;6.23;;;4.93;;
11731;SDS011;5922;53.734;10.258;2022-09-09T07:41:43;7.97;;;5.50;;
11731;SDS011;5922;53.734;10.258;2022-09-09T07:44:11;5.53;;;5.03;;
11731;SDS011;5922;53.734;10.258;2022-09-09T07:46:40;7.03;;;4.97;;
11731;SDS011;5922;53.734;10.258;2022-09-09T07:49:07;6.03;;;4.50;;
11731;SDS011;5922;53.734;10.258;2022-09-09T07:51:35;5.40;;;4.90;;
11731;SDS011;5922;53.734;10.258;2022-09-09T07:54:03;6.17;;;4.83;;
11731;SDS011;5922;53.734;10.258;2022-09-09T07:59:22;5.97;;;4.67;;
11731;SDS011;5922;53.734;10.258;2022-09-09T08:01:51;5.20;;;4.20;;
11731;SDS011;5922;53.734;10.258;2022-09-09T08:04:23;7.13;;;4.87;;
11731;SDS011;5922;53.734;10.258;2022-09-09T08:41:45;6.13;;;3.40;;
11731;SDS011;5922;53.734;10.258;2022-09-09T08:44:18;6.27;;;3.00;;
11731;SDS011;5922;53.734;10.258;2022-09-09T08:46:51;5.63;;;3.17;;
11731;SDS011;5922;53.734;10.258;2022-09-09T08:49:30;4.00;;;3.13;;
11731;SDS011;5922;53.734;10.258;2022-09-09T08:52:06;5.33;;;3.13;;
11731;SDS011;5922;53.734;10.258;2022-09-09T08:54:35;3.40;;;3.10;;
11731;SDS011;5922;53.734;10.258;2022-09-09T08:57:19;8.87;;;3.07;;
11731;SDS011;5922;53.734;10.258;2022-09-09T08:59:47;5.23;;;3.20;;
11731;SDS011;5922;53.734;10.258;2022-09-09T09:02:16;5.33;;;3.10;;
11731;SDS011;5922;53.734;10.258;2022-09-09T09:04:50;5.37;;;3.13;;
11731;SDS011;5922;53.734;10.258;2022-09-09T09:07:23;5.00;;;3.10;;
11731;SDS011;5922;53.734;10.258;2022-09-09T09:09:55;4.57;;;3.03;;
11731;SDS011;5922;53.734;10.258;2022-09-09T09:12:27;5.13;;;3.10;;
11731;SDS011;5922;53.734;10.258;2022-09-09T09:14:55;6.27;;;3.10;;
11731;SDS011;5922;53.734;10.258;2022-09-09T09:17:24;3.67;;;2.60;;
11731;SDS011;5922;53.734;10.258;2022-09-09T09:19:52;3.07;;;2.87;;
11731;SDS011;5922;53.734;10.258;2022-09-09T09:22:20;3.83;;;2.83;;
11731;SDS011;5922;53.734;10.258;2022-09-09T09:24:51;4.57;;;2.80;;
11731;SDS011;5922;53.734;10.258;2022-09-09T09:27:21;5.97;;;2.57;;
11731;SDS011;5922;53.734;10.258;2022-09-09T09:29:55;3.50;;;2.67;;
11731;SDS011;5922;53.734;10.258;2022-09-09T09:32:23;3.77;;;2.87;;
11731;SDS011;5922;53.734;10.258;2022-09-09T09:34:51;5.30;;;3.10;;
11731;SDS011;5922;53.734;10.258;2022-09-09T09:37:21;4.20;;;3.20;;
11731;SDS011;5922;53.734;10.258;2022-09-09T09:39:49;3.33;;;2.60;;
11731;SDS011;5922;53.734;10.258;2022-09-09T09:42:17;6.10;;;3.10;;
11731;SDS011;5922;53.734;10.258;2022-09-09T09:44:44;3.40;;;2.20;;
11731;SDS011;5922;53.734;10.258;2022-09-09T09:47:14;2.97;;;2.40;;
11731;SDS011;5922;53.734;10.258;2022-09-09T09:49:50;4.43;;;2.50;;
11731;SDS011;5922;53.734;10.258;2022-09-09T09:52:19;6.63;;;2.90;;
11731;SDS011;5922;53.734;10.258;2022-09-09T09:54:49;3.27;;;2.00;;
11731;SDS011;5922;53.734;10.258;2022-09-09T09:57:17;4.10;;;2.20;;
11731;SDS011;5922;53.734;10.258;2022-09-09T09:59:44;4.27;;;2.03;;
11731;SDS011;5922;53.734;10.258;2022-09-09T10:02:18;2.50;;;2.00;;
11731;SDS011;5922;53.734;10.258;2022-09-09T10:04:46;3.57;;;2.00;;
11731;SDS011;5922;53.734;10.258;2022-09-09T10:07:17;4.43;;;2.20;;
11731;SDS011;5922;53.734;10.258;2022-09-09T10:09:45;3.03;;;2.10;;
11731;SDS011;5922;53.734;10.258;2022-09-09T10:12:16;3.50;;;2.40;;
11731;SDS011;5922;53.734;10.258;2022-09-09T10:14:46;3.03;;;2.17;;
11731;SDS011;5922;53.734;10.258;2022-09-09T10:17:18;4.67;;;2.00;;
11731;SDS011;5922;53.734;10.258;2022-09-09T10:19:51;3.77;;;2.33;;
11731;SDS011;5922;53.734;10.258;2022-09-09T10:22:25;2.97;;;1.80;;
11731;SDS011;5922;53.734;10.258;2022-09-09T10:25:10;7.07;;;2.10;;
11731;SDS011;5922;53.734;10.258;2022-09-09T10:27:44;3.13;;;2.00;;
11731;SDS011;5922;53.734;10.258;2022-09-09T10:30:15;2.80;;;1.87;;
11731;SDS011;5922;53.734;10.258;2022-09-09T10:32:49;4.07;;;1.90;;
11731;SDS011;5922;53.734;10.258;2022-09-09T10:35:30;3.97;;;2.00;;
11731;SDS011;5922;53.734;10.258;2022-09-09T10:38:08;3.10;;;1.67;;
11731;SDS011;5922;53.734;10.258;2022-09-09T10:40:38;2.97;;;1.90;;
11731;SDS011;5922;53.734;10.258;2022-09-09T10:43:10;3.07;;;1.70;;
11731;SDS011;5922;53.734;10.258;2022-09-09T10:45:42;3.63;;;2.10;;
11731;SDS011;5922;53.734;10.258;2022-09-09T10:48:15;2.37;;;1.57;;
11731;SDS011;5922;53.734;10.258;2022-09-09T10:50:50;2.37;;;1.50;;
11731;SDS011;5922;53.734;10.258;2022-09-09T10:53:21;3.50;;;2.00;;
11731;SDS011;5922;53.734;10.258;2022-09-09T10:55:51;4.03;;;1.90;;
11731;SDS011;5922;53.734;10.258;2022-09-09T10:58:20;3.60;;;1.70;;
11731;SDS011;5922;53.734;10.258;2022-09-09T11:00:49;1.90;;;1.40;;
11731;SDS011;5922;53.734;10.258;2022-09-09T11:03:20;5.60;;;1.70;;
11731;SDS011;5922;53.734;10.258;2022-09-09T11:05:51;3.10;;;1.40;;
11731;SDS011;5922;53.734;10.258;2022-09-09T11:08:20;2.50;;;1.40;;
11731;SDS011;5922;53.734;10.258;2022-09-09T11:10:48;3.73;;;1.57;;
11731;SDS011;5922;53.734;10.258;2022-09-09T11:13:22;2.27;;;1.23;;
11731;SDS011;5922;53.734;10.258;2022-09-09T11:15:52;2.27;;;1.20;;
11731;SDS011;5922;53.734;10.258;2022-09-09T11:18:22;3.63;;;1.20;;
11731;SDS011;5922;53.734;10.258;2022-09-09T11:20:51;2.97;;;1.77;;
11731;SDS011;5922;53.734;10.258;2022-09-09T11:23:22;2.97;;;2.00;;
11731;SDS011;5922;53.734;10.258;2022-09-09T11:25:53;2.70;;;1.20;;
11731;SDS011;5922;53.734;10.258;2022-09-09T11:28:36;2.87;;;1.50;;
11731;SDS011;5922;53.734;10.258;2022-09-09T13:20:18;2.47;;;1.57;;
11731;SDS011;5922;53.734;10.258;2022-09-09T13:22:46;3.63;;;1.87;;
11731;SDS011;5922;53.734;10.258;2022-09-09T13:25:22;3.43;;;1.70;;
11731;SDS011;5922;53.734;10.258;2022-09-09T13:27:52;2.10;;;1.60;;
11731;SDS011;5922;53.734;10.258;2022-09-09T13:30:20;5.17;;;1.80;;
11731;SDS011;5922;53.734;10.258;2022-09-09T13:35:33;1.93;;;1.50;;
11731;SDS011;5922;53.734;10.258;2022-09-09T13:38:14;2.03;;;1.50;;
11731;SDS011;5922;53.734;10.258;2022-09-09T13:40:51;2.73;;;1.70;;
11731;SDS011;5922;53.734;10.258;2022-09-09T13:43:20;3.40;;;1.57;;
11731;SDS011;5922;53.734;10.258;2022-09-09T13:45:52;3.97;;;1.80;;
11731;SDS011;5922;53.734;10.258;2022-09-09T13:48:21;2.97;;;1.50;;
11731;SDS011;5922;53.734;10.258;2022-09-09T13:50:55;3.13;;;1.60;;
11731;SDS011;5922;53.734;10.258;2022-09-09T13:53:22;3.13;;;1.80;;
11731;SDS011;5922;53.734;10.258;2022-09-09T13:55:49;5.93;;;1.97;;
11731;SDS011;5922;53.734;10.258;2022-09-09T13:58:17;5.70;;;2.07;;
11731;SDS011;5922;53.734;10.258;2022-09-09T14:00:46;2.80;;;1.70;;
11731;SDS011;5922;53.734;10.258;2022-09-09T14:03:15;1.97;;;1.43;;
11731;SDS011;5922;53.734;10.258;2022-09-09T14:05:42;3.40;;;1.60;;
11731;SDS011;5922;53.734;10.258;2022-09-09T14:08:14;4.17;;;1.70;;
11731;SDS011;5922;53.734;10.258;2022-09-09T14:10:42;2.73;;;1.60;;
11731;SDS011;5922;53.734;10.258;2022-09-09T14:13:10;3.43;;;1.50;;
11731;SDS011;5922;53.734;10.258;2022-09-09T14:15:37;2.17;;;1.47;;
11731;SDS011;5922;53.734;10.258;2022-09-09T14:18:04;2.40;;;1.70;;
11731;SDS011;5922;53.734;10.258;2022-09-09T14:20:32;3.30;;;2.00;;
11731;SDS011;5922;53.734;10.258;2022-09-09T14:22:59;2.83;;;1.60;;
11731;SDS011;5922;53.734;10.258;2022-09-09T14:25:27;2.07;;;1.60;;
11731;SDS011;5922;53.734;10.258;2022-09-09T14:27:54;3.30;;;1.80;;
11731;SDS011;5922;53.734;10.258;2022-09-09T14:30:22;4.93;;;2.00;;
11731;SDS011;5922;53.734;10.258;2022-09-09T14:32:49;5.53;;;2.03;;
11731;SDS011;5922;53.734;10.258;2022-09-09T14:35:21;4.60;;;2.17;;
11731;SDS011;5922;53.734;10.258;2022-09-09T14:37:56;2.93;;;1.60;;
11731;SDS011;5922;53.734;10.258;2022-09-09T14:40:27;3.40;;;1.90;;
11731;SDS011;5922;53.734;10.258;2022-09-09T14:42:54;4.23;;;1.70;;
11731;SDS011;5922;53.734;10.258;2022-09-09T14:45:22;3.20;;;1.90;;
11731;SDS011;5922;53.734;10.258;2022-09-09T14:47:49;4.10;;;1.77;;
11731;SDS011;5922;53.734;10.258;2022-09-09T14:50:17;4.93;;;1.70;;
11731;SDS011;5922;53.734;10.258;2022-09-09T14:52:44;2.93;;;1.70;;
11731;SDS011;5922;53.734;10.258;2022-09-09T14:55:11;2.47;;;1.80;;
11731;SDS011;5922;53.734;10.258;2022-09-09T14:57:40;3.53;;;1.70;;
11731;SDS011;5922;53.734;10.258;2022-09-09T15:26:03;4.73;;;2.40;;
11731;SDS011;5922;53.734;10.258;2022-09-09T15:28:39;2.53;;;1.50;;
11731;SDS011;5922;53.734;10.258;2022-09-09T15:31:07;2.80;;;1.43;;
11731;SDS011;5922;53.734;10.258;2022-09-09T15:33:34;2.90;;;1.33;;
11731;SDS011;5922;53.734;10.258;2022-09-09T15:36:12;2.00;;;1.50;;
11731;SDS011;5922;53.734;10.258;2022-09-09T15:38:41;2.17;;;1.60;;
11731;SDS011;5922;53.734;10.258;2022-09-09T15:41:09;2.43;;;1.67;;
11731;SDS011;5922;53.734;10.258;2022-09-09T15:43:36;3.50;;;1.70;;
11731;SDS011;5922;53.734;10.258;2022-09-09T15:46:08;2.80;;;1.57;;
11731;SDS011;5922;53.734;10.258;2022-09-09T15:48:43;5.87;;;1.63;;
11731;SDS011;5922;53.734;10.258;2022-09-09T15:51:11;3.33;;;1.70;;
11731;SDS011;5922;53.734;10.258;2022-09-09T15:53:39;4.10;;;1.87;;
11731;SDS011;5922;53.734;10.258;2022-09-09T15:56:07;4.60;;;2.10;;
11731;SDS011;5922;53.734;10.258;2022-09-09T15:58:35;4.33;;;1.97;;
11731;SDS011;5922;53.734;10.258;2022-09-09T16:01:02;3.83;;;1.70;;
11731;SDS011;5922;53.734;10.258;2022-09-09T16:03:29;5.60;;;2.17;;
11731;SDS011;5922;53.734;10.258;2022-09-09T16:05:56;3.83;;;2.13;;
11731;SDS011;5922;53.734;10.258;2022-09-09T16:08:24;4.67;;;1.97;;
11731;SDS011;5922;53.734;10.258;2022-09-09T16:10:52;4.03;;;2.33;;
11731;SDS011;5922;53.734;10.258;2022-09-09T16:13:20;3.80;;;2.03;;
11731;SDS011;5922;53.734;10.258;2022-09-09T16:15:53;2.43;;;1.60;;
11731;SDS011;5922;53.734;10.258;2022-09-09T16:18:20;4.27;;;2.10;;
11731;SDS011;5922;53.734;10.258;2022-09-09T16:20:53;3.67;;;1.80;;
11731;SDS011;5922;53.734;10.258;2022-09-09T16:23:20;5.13;;;2.07;;
11731;SDS011;5922;53.734;10.258;2022-09-09T16:25:52;3.07;;;2.03;;
11731;SDS011;5922;53.734;10.258;2022-09-09T16:28:21;2.93;;;1.93;;
11731;SDS011;5922;53.734;10.258;2022-09-09T16:30:48;6.23;;;1.90;;
11731;SDS011;5922;53.734;10.258;2022-09-09T16:33:15;3.17;;;2.03;;
11731;SDS011;5922;53.734;10.258;2022-09-09T16:35:43;5.70;;;2.07;;
11731;SDS011;5922;53.734;10.258;2022-09-09T16:38:10;4.90;;;2.00;;
11731;SDS011;5922;53.734;10.258;2022-09-09T16:40:38;3.73;;;2.07;;
11731;SDS011;5922;53.734;10.258;2022-09-09T16:43:06;3.80;;;1.90;;
11731;SDS011;5922;53.734;10.258;2022-09-09T16:45:35;3.10;;;1.60;;
11731;SDS011;5922;53.734;10.258;2022-09-09T16:48:07;2.50;;;1.70;;
11731;SDS011;5922;53.734;10.258;2022-09-09T16:50:34;3.57;;;1.70;;
11731;SDS011;5922;53.734;10.258;2022-09-09T16:53:02;2.83;;;1.50;;
11731;SDS011;5922;53.734;10.258;2022-09-09T16:55:31;3.00;;;1.80;;
11731;SDS011;5922;53.734;10.258;2022-09-09T16:57:59;4.73;;;2.00;;
11731;SDS011;5922;53.734;10.258;2022-09-09T17:00:26;3.33;;;2.00;;
11731;SDS011;5922;53.734;10.258;2022-09-09T17:02:54;2.80;;;1.90;;
11731;SDS011;5922;53.734;10.258;2022-09-09T17:05:22;3.20;;;1.70;;
11731;SDS011;5922;53.734;10.258;2022-09-09T17:07:50;3.07;;;1.43;;
11731;SDS011;5922;53.734;10.258;2022-09-09T17:10:17;3.13;;;1.50;;
11731;SDS011;5922;53.734;10.258;2022-09-09T17:12:44;2.50;;;1.47;;
11731;SDS011;5922;53.734;10.258;2022-09-09T17:15:11;2.53;;;1.50;;
11731;SDS011;5922;53.734;10.258;2022-09-09T17:17:38;1.67;;;1.20;;
11731;SDS011;5922;53.734;10.258;2022-09-09T17:20:10;1.90;;;1.67;;
11731;SDS011;5922;53.734;10.258;2022-09-09T17:22:37;3.03;;;1.50;;
11731;SDS011;5922;53.734;10.258;2022-09-09T17:25:04;3.50;;;1.40;;
11731;SDS011;5922;53.734;10.258;2022-09-09T17:27:32;6.90;;;1.57;;
11731;SDS011;5922;53.734;10.258;2022-09-09T17:29:59;2.43;;;1.60;;
11731;SDS011;5922;53.734;10.258;2022-09-09T17:32:27;2.07;;;1.70;;
11731;SDS011;5922;53.734;10.258;2022-09-09T17:34:55;4.43;;;2.60;;
11731;SDS011;5922;53.734;10.258;2022-09-09T17:37:24;5.97;;;2.20;;
11731;SDS011;5922;53.734;10.258;2022-09-09T17:39:52;3.63;;;2.00;;
11731;SDS011;5922;53.734;10.258;2022-09-09T17:42:19;5.03;;;2.00;;
11731;SDS011;5922;53.734;10.258;2022-09-09T17:44:46;1.90;;;1.60;;
11731;SDS011;5922;53.734;10.258;2022-09-09T17:47:14;2.87;;;1.60;;